Time;durP1;ratioP1;P1;durP2;ratioP2;P2;SDS_P1;SDS_P2;PMS_P1;PMS_P2;Temp;Humidity;BMP_temperature;BMP_pressure;BME280_temperature;BME280_humidity;BME280_pressure;Samples;Min_cycle;Max_cycle;Signal;HPM_P1;HPM_P2
2023/06/27 00:01:55;;;;;;;10.20;6.00;;;;;;;22.72;48.62;99461.98;107773;1255;61665;-68
2023/06/27 00:04:23;;;;;;;10.20;6.40;;;;;;;22.54;48.89;99469.25;107773;1256;59625;-67
2023/06/27 00:06:51;;;;;;;8.40;5.90;;;;;;;22.33;49.28;99460.95;107644;1256;71989;-68
2023/06/27 00:09:18;;;;;;;8.90;6.20;;;;;;;22.42;49.12;99454.92;107706;1256;70357;-67
2023/06/27 00:11:46;;;;;;;12.70;6.40;;;;;;;22.10;49.76;99452.56;107780;1256;72700;-67
2023/06/27 00:14:13;;;;;;;7.10;5.50;;;;;;;22.19;49.77;99452.83;107628;1255;60896;-67
2023/06/27 00:16:41;;;;;;;10.90;6.90;;;;;;;22.30;49.53;99452.09;107681;1255;59411;-65
2023/06/27 00:19:10;;;;;;;9.70;7.00;;;;;;;21.99;50.15;99450.80;107690;1256;73088;-67
2023/06/27 00:21:38;;;;;;;9.70;6.10;;;;;;;22.14;50.06;99443.77;107862;1256;69331;-66
2023/06/27 00:24:06;;;;;;;13.50;7.00;;;;;;;22.38;49.66;99438.51;107911;1256;73645;-67
2023/06/27 00:26:35;;;;;;;9.80;6.70;;;;;;;21.87;50.82;99435.46;108997;1255;60904;-68
2023/06/27 00:29:02;;;;;;;10.20;6.60;;;;;;;22.26;49.97;99440.86;108196;1256;60022;-67
2023/06/27 00:31:31;;;;;;;8.30;6.40;;;;;;;22.07;50.28;99442.81;108201;1255;71779;-65
2023/06/27 00:33:59;;;;;;;8.90;6.50;;;;;;;21.74;51.21;99440.98;107756;1262;69807;-66
2023/06/27 00:36:26;;;;;;;8.70;6.70;;;;;;;21.87;50.89;99442.63;107675;1261;71232;-64
2023/06/27 00:38:55;;;;;;;8.40;6.50;;;;;;;21.87;50.98;99443.48;107751;1258;60673;-62
2023/06/27 00:41:24;;;;;;;8.80;7.30;;;;;;;21.88;51.16;99442.52;107855;1257;59502;-67
2023/06/27 00:43:51;;;;;;;8.50;7.40;;;;;;;21.81;51.56;99443.33;107784;1255;70876;-66
2023/06/27 00:46:34;;;;;;;9.10;6.00;;;;;;;21.83;51.76;99446.06;107904;1256;70245;-66
2023/06/27 00:49:01;;;;;;;10.60;6.60;;;;;;;21.97;51.73;99448.23;107737;1259;72733;-65
2023/06/27 00:51:30;;;;;;;9.80;7.10;;;;;;;22.26;51.29;99449.80;107919;1256;60465;-69
2023/06/27 00:53:57;;;;;;;8.80;6.70;;;;;;;22.27;51.55;99450.97;107901;1254;60152;-67
2023/06/27 00:56:26;;;;;;;12.00;7.20;;;;;;;22.23;51.58;99446.33;107856;1260;71906;-65
2023/06/27 00:58:57;;;;;;;9.60;6.90;;;;;;;22.22;51.87;99450.21;107737;1255;68906;-66
2023/06/27 01:01:25;;;;;;;;;;;;;;;22.30;51.80;99446.70;107825;1256;72629;-65
2023/06/27 01:03:52;;;;;;;8.50;6.60;;;;;;;22.37;51.94;99447.21;107803;1256;61630;-66
2023/06/27 01:06:44;;;;;;;7.70;5.80;;;;;;;22.32;52.18;99444.88;108179;1254;59401;-67
2023/06/27 01:09:15;;;;;;;9.60;6.20;;;;;;;22.28;52.26;99441.70;107891;1254;72160;-66
2023/06/27 01:11:47;;;;;;;;;;;;;;;22.51;51.89;99443.95;108577;1256;69936;-67
2023/06/27 01:14:17;;;;;;;7.50;5.90;;;;;;;22.82;51.26;99439.13;108029;1256;72641;-67
2023/06/27 01:16:45;;;;;;;7.40;6.00;;;;;;;23.01;50.79;99439.95;107994;1253;60091;-66
2023/06/27 01:19:13;;;;;;;9.10;6.00;;;;;;;23.10;50.18;99439.27;108260;1253;59675;-67
2023/06/27 01:21:41;;;;;;;6.10;5.40;;;;;;;23.22;49.98;99436.75;108070;1252;72970;-67
2023/06/27 01:24:08;;;;;;;7.10;6.00;;;;;;;23.32;49.70;99432.59;107975;1253;69223;-66
2023/06/27 01:26:36;;;;;;;12.70;5.30;;;;;;;23.29;49.73;99434.71;108112;1253;72753;-67
2023/06/27 01:29:03;;;;;;;7.10;5.90;;;;;;;23.39;49.60;99438.98;108088;1252;61664;-66
2023/06/27 01:31:39;;;;;;;11.10;5.90;;;;;;;23.36;49.59;99440.39;108174;1252;59608;-68
2023/06/27 01:34:13;;;;;;;8.30;5.60;;;;;;;23.45;49.36;99439.29;108043;1252;71531;-67
2023/06/27 01:36:42;;;;;;;8.30;5.70;;;;;;;23.58;49.00;99444.79;108132;1253;68823;-67
2023/06/27 01:39:26;;;;;;;7.40;5.60;;;;;;;23.59;48.99;99441.23;108112;1253;72951;-68
2023/06/27 01:42:02;;;;;;;7.40;5.80;;;;;;;23.64;49.03;99442.41;107979;1253;60943;-66
2023/06/27 01:44:32;;;;;;;7.00;5.20;;;;;;;23.75;48.82;99440.94;108827;1252;59461;-67
2023/06/27 01:46:59;;;;;;;7.30;5.80;;;;;;;23.81;48.68;99443.35;108808;1253;75283;-67
2023/06/27 01:49:26;;;;;;;7.70;5.50;;;;;;;23.93;48.49;99445.54;108613;1253;70476;-68
2023/06/27 01:51:55;;;;;;;7.40;5.90;;;;;;;23.96;48.42;99447.85;108471;1253;72874;-67
2023/06/27 01:54:23;;;;;;;8.40;6.20;;;;;;;23.97;48.29;99448.53;108184;1257;62752;-67
2023/06/27 01:56:50;;;;;;;7.50;6.00;;;;;;;23.72;48.75;99449.27;108132;1253;60839;-67
2023/06/27 01:59:18;;;;;;;8.90;5.90;;;;;;;23.58;48.86;99449.48;107975;1253;72782;-66
2023/06/27 02:01:45;;;;;;;7.80;4.80;;;;;;;23.88;48.46;99453.44;107970;1253;71162;-65
2023/06/27 02:04:13;;;;;;;6.10;5.30;;;;;;;23.92;48.29;99453.33;108031;1257;71969;-65
2023/06/27 02:06:40;;;;;;;6.70;5.40;;;;;;;24.07;47.89;99451.80;108125;1253;60423;-67
2023/06/27 02:09:08;;;;;;;7.30;5.90;;;;;;;24.09;47.78;99453.96;108097;1252;59580;-66
2023/06/27 02:11:36;;;;;;;8.00;5.90;;;;;;;24.21;47.31;99454.05;108185;1253;73014;-66
2023/06/27 02:14:03;;;;;;;9.00;6.20;;;;;;;24.25;47.23;99451.40;107957;1253;68813;-66
2023/06/27 02:16:30;;;;;;;7.60;6.10;;;;;;;24.23;47.31;99451.78;108227;1253;72667;-66
2023/06/27 02:18:58;;;;;;;6.90;5.60;;;;;;;24.28;47.09;99451.36;108083;1259;59960;-67
2023/06/27 02:21:26;;;;;;;10.80;5.80;;;;;;;23.83;47.89;99450.85;108069;1259;59453;-67
2023/06/27 02:23:53;;;;;;;9.40;5.40;;;;;;;23.35;48.99;99443.34;108037;1257;73038;-66
2023/06/27 02:26:20;;;;;;;9.80;6.10;;;;;;;23.19;49.31;99444.47;108861;1252;70787;-66
2023/06/27 02:28:48;;;;;;;5.80;5.10;;;;;;;23.24;49.47;99445.73;108168;1253;72954;-67
2023/06/27 02:31:15;;;;;;;6.40;5.70;;;;;;;23.40;49.36;99444.61;109186;1253;61828;-68
2023/06/27 02:33:43;;;;;;;6.30;5.10;;;;;;;23.54;49.33;99448.25;108020;1252;60381;-68
2023/06/27 02:36:10;;;;;;;8.10;6.00;;;;;;;23.68;49.09;99450.94;108144;1253;72546;-67
2023/06/27 02:38:38;;;;;;;7.50;5.60;;;;;;;23.70;49.05;99445.11;108113;1253;70878;-66
2023/06/27 02:41:05;;;;;;;7.40;5.70;;;;;;;23.90;48.69;99443.52;107939;1252;73021;-64
2023/06/27 02:43:33;;;;;;;7.60;5.90;;;;;;;24.02;48.43;99444.39;108099;1253;60530;-67
2023/06/27 02:46:00;;;;;;;7.40;5.50;;;;;;;23.87;48.30;99440.77;108261;1253;60286;-68
2023/06/27 02:48:28;;;;;;;9.10;5.50;;;;;;;23.76;48.67;99439.18;108095;1254;75258;-67
2023/06/27 02:50:56;;;;;;;7.30;5.60;;;;;;;24.02;48.04;99438.16;108192;1253;69356;-66
2023/06/27 02:53:25;;;;;;;8.20;5.10;;;;;;;24.11;48.00;99437.34;108187;1253;73181;-66
2023/06/27 02:55:53;;;;;;;7.10;5.20;;;;;;;24.16;47.68;99439.05;108004;1253;61019;-65
2023/06/27 02:58:21;;;;;;;7.00;5.10;;;;;;;24.31;47.04;99437.66;108113;1253;60265;-67
2023/06/27 03:00:49;;;;;;;7.90;6.00;;;;;;;24.36;47.01;99435.66;108139;1252;72709;-67
2023/06/27 03:03:18;;;;;;;9.00;5.60;;;;;;;24.28;47.23;99432.88;107910;1253;68859;-67
2023/06/27 03:05:45;;;;;;;10.60;6.10;;;;;;;24.14;47.36;99431.15;109004;1253;72704;-67
2023/06/27 03:08:13;;;;;;;10.40;5.70;;;;;;;23.82;48.11;99432.30;108281;1254;61731;-66
2023/06/27 03:10:41;;;;;;;11.00;6.50;;;;;;;23.87;48.12;99430.58;108861;1253;60110;-68
2023/06/27 03:13:09;;;;;;;6.40;5.20;;;;;;;24.17;47.70;99430.27;108454;1253;73911;-67
2023/06/27 03:15:36;;;;;;;8.20;5.20;;;;;;;24.52;46.95;99433.95;108081;1253;69116;-67
2023/06/27 03:18:04;;;;;;;6.50;5.20;;;;;;;24.96;46.18;99432.61;107983;1253;70404;-67
2023/06/27 03:20:32;;;;;;;7.00;5.50;;;;;;;25.02;45.85;99434.38;108088;1257;60385;-67
2023/06/27 03:22:59;;;;;;;6.70;5.00;;;;;;;24.90;46.12;99431.39;108102;1252;59599;-67
2023/06/27 03:25:27;;;;;;;7.70;4.90;;;;;;;25.20;45.25;99429.36;108124;1252;73810;-68
2023/06/27 03:27:55;;;;;;;9.10;5.40;;;;;;;25.20;45.08;99424.15;108088;1253;69586;-68
2023/06/27 03:30:23;;;;;;;5.50;4.50;;;;;;;25.44;44.59;99420.77;108162;1257;72675;-68
2023/06/27 03:32:52;;;;;;;6.10;4.50;;;;;;;25.78;43.94;99419.34;107864;1260;60899;-68
2023/06/27 03:35:20;;;;;;;8.50;4.60;;;;;;;25.89;43.71;99420.63;107937;1256;59262;-68
2023/06/27 03:37:50;;;;;;;5.70;4.40;;;;;;;26.01;43.55;99417.70;108151;1251;72672;-67
2023/06/27 03:40:18;;;;;;;5.80;4.70;;;;;;;26.21;43.22;99421.43;108195;1253;70735;-68
2023/06/27 03:42:46;;;;;;;8.80;4.70;;;;;;;26.35;42.78;99425.13;108136;1251;71413;-67
2023/06/27 03:45:14;;;;;;;5.60;4.10;;;;;;;26.53;42.48;99426.85;108232;1256;60423;-68
2023/06/27 03:47:41;;;;;;;6.20;4.20;;;;;;;26.78;42.21;99425.61;107921;1253;60415;-67
2023/06/27 03:50:09;;;;;;;5.80;4.10;;;;;;;26.93;41.59;99424.42;107966;1253;72898;-67
2023/06/27 03:52:37;;;;;;;5.10;4.00;;;;;;;27.10;40.95;99422.52;108031;1253;69476;-67
2023/06/27 03:55:05;;;;;;;5.80;3.60;;;;;;;27.13;40.91;99420.38;107976;1256;71486;-67
2023/06/27 03:57:33;;;;;;;4.80;4.00;;;;;;;27.22;40.47;99416.05;107989;1252;61642;-69
2023/06/27 04:00:00;;;;;;;7.40;3.80;;;;;;;27.39;40.43;99410.05;107938;1251;60439;-67
2023/06/27 04:02:28;;;;;;;6.80;3.90;;;;;;;27.49;39.96;99413.23;108002;1253;73867;-68
2023/06/27 04:04:56;;;;;;;4.90;3.70;;;;;;;27.57;39.74;99410.65;107806;1253;69991;-67
2023/06/27 04:07:23;;;;;;;12.00;4.10;;;;;;;27.61;39.54;99414.39;108091;1255;72795;-67
2023/06/27 04:09:51;;;;;;;5.20;3.50;;;;;;;27.68;39.27;99409.77;107749;1253;62098;-66
2023/06/27 04:12:18;;;;;;;5.80;4.30;;;;;;;27.58;39.36;99409.59;108027;1253;60352;-68
2023/06/27 04:14:47;;;;;;;4.40;3.80;;;;;;;27.62;39.18;99409.58;108182;1252;73973;-68
2023/06/27 04:17:14;;;;;;;5.80;4.10;;;;;;;27.65;38.89;99403.66;108135;1253;70096;-69
2023/06/27 04:19:43;;;;;;;6.40;4.00;;;;;;;27.74;38.90;99395.89;107975;1254;74704;-68
2023/06/27 04:22:11;;;;;;;5.00;3.90;;;;;;;27.85;38.52;99389.33;108016;1253;60887;-68
2023/06/27 04:24:38;;;;;;;5.20;3.90;;;;;;;27.95;38.53;99393.84;107841;1253;60104;-68
2023/06/27 04:27:09;;;;;;;4.90;3.60;;;;;;;28.05;38.75;99386.95;107969;1253;72681;-69
2023/06/27 04:29:37;;;;;;;3.30;2.70;;;;;;;28.13;38.28;99385.80;108016;1253;71085;-68
2023/06/27 04:32:05;;;;;;;4.50;3.60;;;;;;;28.36;37.98;99384.41;107943;1256;72842;-67
2023/06/27 04:34:35;;;;;;;3.70;2.90;;;;;;;28.44;37.73;99385.56;108022;1253;63886;-66
2023/06/27 04:37:04;;;;;;;5.20;3.60;;;;;;;28.63;37.86;99387.62;107997;1253;60422;-66
2023/06/27 04:39:31;;;;;;;9.00;4.10;;;;;;;28.90;37.60;99384.16;108074;1253;73875;-68
2023/06/27 04:42:01;;;;;;;3.50;3.20;;;;;;;29.03;37.14;99383.67;107994;1253;68915;-68
2023/06/27 04:44:29;;;;;;;5.00;3.80;;;;;;;29.41;36.72;99379.20;107911;1256;71647;-68
2023/06/27 04:46:56;;;;;;;3.50;3.20;;;;;;;29.60;36.18;99378.02;107972;1254;61668;-67
2023/06/27 04:49:24;;;;;;;8.20;3.50;;;;;;;29.61;35.87;99371.70;108113;1256;60291;-68
2023/06/27 04:51:52;;;;;;;5.50;3.60;;;;;;;29.83;35.71;99373.92;108125;1252;74169;-67
2023/06/27 04:54:21;;;;;;;4.80;3.50;;;;;;;29.71;35.79;99373.88;108211;1256;70117;-69
2023/06/27 04:56:49;;;;;;;7.80;3.40;;;;;;;29.90;35.83;99370.87;108129;1258;71000;-69
2023/06/27 04:59:34;;;;;;;5.30;3.80;;;;;;;30.14;35.28;99369.02;108162;1251;62610;-68
2023/06/27 05:02:02;;;;;;;3.70;3.20;;;;;;;30.26;34.95;99371.30;108164;1257;60415;-68
2023/06/27 05:04:29;;;;;;;3.30;3.00;;;;;;;30.29;34.95;99367.27;108225;1252;72622;-68
2023/06/27 05:07:01;;;;;;;4.10;3.00;;;;;;;30.44;34.58;99363.27;108010;1251;71257;-68
2023/06/27 05:09:29;;;;;;;4.20;3.40;;;;;;;30.69;34.24;99358.80;108036;1251;73133;-70
2023/06/27 05:11:56;;;;;;;3.70;3.10;;;;;;;30.83;33.97;99359.73;108088;1251;62276;-68
2023/06/27 05:14:24;;;;;;;3.50;3.00;;;;;;;31.03;33.48;99355.45;108159;1252;60509;-69
2023/06/27 05:16:52;;;;;;;4.70;3.20;;;;;;;30.97;33.55;99360.35;108172;1251;72846;-67
2023/06/27 05:19:19;;;;;;;3.70;3.10;;;;;;;31.21;33.05;99357.46;108138;1258;70238;-69
2023/06/27 05:21:48;;;;;;;4.20;3.40;;;;;;;31.23;32.79;99358.89;108063;1253;72425;-71
2023/06/27 05:24:17;;;;;;;5.00;3.00;;;;;;;31.51;32.43;99363.41;108150;1253;61469;-69
2023/06/27 05:26:44;;;;;;;5.40;3.00;;;;;;;31.63;32.17;99366.79;108080;1254;60483;-70
2023/06/27 05:29:12;;;;;;;4.40;2.90;;;;;;;31.86;31.89;99362.46;108073;1254;72787;-70
2023/06/27 05:31:40;;;;;;;4.20;3.10;;;;;;;32.00;31.90;99367.52;108112;1256;69908;-71
2023/06/27 05:34:07;;;;;;;4.60;2.90;;;;;;;31.92;31.52;99365.26;108083;1254;71397;-70
2023/06/27 05:36:35;;;;;;;5.00;2.80;;;;;;;32.10;31.31;99365.50;108239;1254;62220;-69
2023/06/27 05:39:02;;;;;;;3.70;2.80;;;;;;;32.21;31.47;99364.58;108154;1253;60172;-70
2023/06/27 05:41:32;;;;;;;4.00;2.80;;;;;;;32.30;31.08;99362.65;108072;1253;72631;-69
2023/06/27 05:43:59;;;;;;;3.80;2.80;;;;;;;32.48;30.84;99365.13;108086;1258;69790;-70
2023/06/27 05:46:26;;;;;;;3.30;2.70;;;;;;;32.62;30.54;99365.52;107955;1257;72802;-70
2023/06/27 05:48:54;;;;;;;2.70;2.40;;;;;;;32.55;29.95;99356.88;108020;1257;60962;-68
2023/06/27 05:51:22;;;;;;;4.50;2.60;;;;;;;32.61;30.44;99358.15;108038;1257;60083;-70
2023/06/27 05:53:49;;;;;;;4.00;3.30;;;;;;;32.55;30.27;99364.17;108100;1259;74336;-69
2023/06/27 05:56:17;;;;;;;4.50;2.80;;;;;;;32.72;29.81;99364.76;108067;1254;69161;-69
2023/06/27 05:58:45;;;;;;;4.00;2.90;;;;;;;32.49;30.24;99372.77;108114;1257;72743;-69
2023/06/27 06:01:12;;;;;;;6.20;3.00;;;;;;;32.07;30.82;99365.64;108031;1255;60471;-69
2023/06/27 06:03:40;;;;;;;3.80;2.60;;;;;;;32.42;30.69;99364.65;108050;1254;60333;-69
2023/06/27 06:06:11;;;;;;;4.20;3.10;;;;;;;32.34;31.08;99362.77;108040;1254;74378;-68
2023/06/27 06:08:39;;;;;;;6.20;2.90;;;;;;;33.10;30.65;99363.40;108059;1257;70480;-71
2023/06/27 06:11:06;;;;;;;6.70;3.00;;;;;;;33.44;30.04;99356.13;108018;1254;62613;-70
2023/06/27 06:13:33;;;;;;;3.00;2.70;;;;;;;33.51;29.76;99357.02;108029;1254;60284;-68
2023/06/27 06:16:01;;;;;;;6.00;3.00;;;;;;;33.31;29.43;99350.42;108083;1257;60416;-68
2023/06/27 06:18:28;;;;;;;3.60;3.00;;;;;;;33.15;29.90;99354.52;108155;1254;73928;-67
2023/06/27 06:20:56;;;;;;;7.10;2.90;;;;;;;33.46;29.69;99347.35;108265;1256;70332;-68
2023/06/27 06:23:23;;;;;;;2.90;2.60;;;;;;;33.73;29.53;99348.07;108362;1254;72702;-69
2023/06/27 06:25:51;;;;;;;3.40;2.60;;;;;;;33.83;29.05;99343.64;108019;1254;60408;-68
2023/06/27 06:28:18;;;;;;;2.10;1.90;;;;;;;33.89;28.92;99342.19;108562;1257;60306;-69
2023/06/27 06:30:46;;;;;;;2.10;2.00;;;;;;;33.81;28.03;99341.22;108023;1255;73115;-69
2023/06/27 06:33:14;;;;;;;3.60;1.80;;;;;;;33.81;28.20;99346.48;108386;1254;61767;-72
2023/06/27 06:35:42;;;;;;;5.10;1.80;;;;;;;33.98;28.11;99346.77;108158;1256;71882;-67
2023/06/27 06:38:09;;;;;;;3.70;1.80;;;;;;;34.13;27.80;99345.33;108193;1255;60479;-68
2023/06/27 06:40:37;;;;;;;4.40;1.80;;;;;;;34.34;27.91;99348.78;108119;1254;59295;-69
2023/06/27 06:43:04;;;;;;;2.60;2.10;;;;;;;34.83;27.55;99347.08;108169;1254;64130;-69
2023/06/27 06:45:32;;;;;;;2.80;2.10;;;;;;;35.13;27.27;99346.55;108115;1256;61386;-70
2023/06/27 06:48:00;;;;;;;3.10;2.10;;;;;;;35.40;26.84;99342.16;108245;1257;62455;-69
2023/06/27 06:50:28;;;;;;;3.90;2.40;;;;;;;35.63;26.73;99343.31;108175;1253;60389;-69
2023/06/27 06:52:55;;;;;;;3.50;2.90;;;;;;;35.78;26.74;99346.29;108109;1256;60280;-69
2023/06/27 06:55:23;;;;;;;4.00;3.00;;;;;;;35.53;27.16;99351.36;108150;1253;65251;-71
2023/06/27 06:57:51;;;;;;;2.90;2.70;;;;;;;35.06;27.38;99349.59;108153;1254;60389;-70
2023/06/27 07:00:20;;;;;;;2.80;2.40;;;;;;;34.80;27.67;99354.54;108113;1254;62988;-69
2023/06/27 07:02:48;;;;;;;4.20;2.50;;;;;;;34.82;27.35;99349.55;108225;1259;60983;-70
2023/06/27 07:05:15;;;;;;;2.30;2.10;;;;;;;34.99;27.07;99347.73;108289;1255;58908;-69
2023/06/27 07:07:44;;;;;;;1.90;1.70;;;;;;;35.29;26.37;99342.83;108713;1254;63794;-70
2023/06/27 07:10:18;;;;;;;2.50;1.90;;;;;;;35.58;25.72;99337.52;108290;1254;60566;-68
2023/06/27 07:12:45;;;;;;;2.00;1.80;;;;;;;35.49;25.74;99333.17;108664;1254;63741;-69
2023/06/27 07:15:15;;;;;;;3.30;1.90;;;;;;;35.42;26.11;99335.27;108200;1256;60305;-68
2023/06/27 07:17:43;;;;;;;2.40;2.20;;;;;;;35.35;26.36;99338.36;108147;1254;60367;-70
2023/06/27 07:20:12;;;;;;;2.30;1.90;;;;;;;35.20;26.62;99341.13;108251;1254;64999;-69
2023/06/27 07:22:39;;;;;;;3.10;2.30;;;;;;;35.08;26.61;99340.18;108373;1254;61405;-68
2023/06/27 07:25:07;;;;;;;3.30;2.20;;;;;;;35.13;26.26;99340.43;108120;1253;62617;-72
2023/06/27 07:27:34;;;;;;;3.50;1.80;;;;;;;35.15;26.10;99330.73;108019;1254;59518;-68
2023/06/27 07:30:02;;;;;;;2.00;1.80;;;;;;;35.37;26.17;99329.13;108033;1252;60310;-69
2023/06/27 07:32:29;;;;;;;2.40;2.00;;;;;;;35.61;26.13;99328.16;108573;1254;64934;-69
2023/06/27 07:34:57;;;;;;;5.20;2.10;;;;;;;35.70;25.60;99322.63;107977;1254;61602;-70
2023/06/27 07:37:24;;;;;;;1.90;1.70;;;;;;;35.61;25.90;99323.06;108261;1253;62557;-69
2023/06/27 07:39:52;;;;;;;3.20;1.70;;;;;;;35.58;25.83;99326.92;108028;1254;60317;-69
2023/06/27 07:42:20;;;;;;;4.70;2.30;;;;;;;35.82;25.38;99325.34;108074;1254;60310;-68
2023/06/27 07:44:48;;;;;;;3.40;1.90;;;;;;;35.98;25.24;99323.32;107994;1254;72969;-69
2023/06/27 07:47:15;;;;;;;1.80;1.50;;;;;;;35.91;24.99;99324.65;108074;1254;60270;-70
2023/06/27 07:49:42;;;;;;;3.40;1.70;;;;;;;36.00;25.24;99328.35;108678;1254;64673;-69
2023/06/27 07:52:10;;;;;;;1.80;1.60;;;;;;;36.51;24.72;99329.46;108409;1253;60448;-69
2023/06/27 07:54:37;;;;;;;2.10;1.50;;;;;;;36.63;24.23;99326.34;108072;1254;60396;-69
2023/06/27 07:57:06;;;;;;;2.70;1.60;;;;;;;36.72;24.18;99328.29;108091;1254;65099;-69
2023/06/27 07:59:33;;;;;;;1.70;1.60;;;;;;;36.73;24.24;99328.46;108051;1257;60494;-68
2023/06/27 08:02:01;;;;;;;3.70;1.90;;;;;;;36.51;24.02;99327.66;108079;1254;62696;-68
2023/06/27 08:04:28;;;;;;;1.60;1.50;;;;;;;36.67;24.20;99333.94;108035;1253;60364;-70
2023/06/27 08:06:56;;;;;;;3.20;1.70;;;;;;;36.74;23.90;99338.84;107978;1254;60291;-69
2023/06/27 08:09:23;;;;;;;3.50;1.70;;;;;;;36.81;23.22;99333.16;108089;1254;64913;-70
2023/06/27 08:11:51;;;;;;;2.60;1.50;;;;;;;36.78;23.03;99336.08;108029;1253;61978;-68
2023/06/27 08:14:19;;;;;;;3.10;1.70;;;;;;;36.96;23.04;99339.02;108064;1253;62499;-68
2023/06/27 08:16:46;;;;;;;1.80;1.50;;;;;;;37.10;22.76;99337.55;108096;1254;60897;-69
2023/06/27 08:19:14;;;;;;;1.90;1.70;;;;;;;36.96;22.47;99335.33;108092;1254;59100;-69
2023/06/27 08:21:41;;;;;;;1.80;1.50;;;;;;;36.69;22.76;99338.46;108023;1253;63888;-71
2023/06/27 08:24:09;;;;;;;4.10;2.00;;;;;;;36.87;22.88;99337.26;107894;1253;63422;-70
2023/06/27 08:26:36;;;;;;;2.00;1.60;;;;;;;36.91;23.12;99336.73;107979;1254;63899;-69
2023/06/27 08:29:04;;;;;;;1.90;1.70;;;;;;;36.93;23.31;99337.48;107826;1254;60536;-69
2023/06/27 08:31:31;;;;;;;4.70;1.90;;;;;;;36.68;23.30;99337.53;108034;1253;60319;-69
2023/06/27 08:33:59;;;;;;;4.30;2.20;;;;;;;36.28;23.78;99335.88;107963;1254;63849;-68
2023/06/27 08:36:26;;;;;;;2.60;2.00;;;;;;;36.00;23.79;99341.37;108055;1253;60426;-68
2023/06/27 08:38:54;;;;;;;1.80;1.60;;;;;;;35.76;24.19;99345.30;108050;1253;62668;-70
2023/06/27 08:41:22;;;;;;;3.10;1.80;;;;;;;35.77;24.47;99335.91;108104;1254;60407;-68
2023/06/27 08:43:50;;;;;;;4.80;1.80;;;;;;;35.93;24.71;99333.25;108286;1253;59255;-69
2023/06/27 08:46:17;;;;;;;2.90;2.10;;;;;;;35.93;24.09;99333.69;108583;1253;64226;-70
2023/06/27 08:48:45;;;;;;;4.40;2.20;;;;;;;35.68;24.13;99328.70;108672;1253;60097;-68
2023/06/27 08:51:14;;;;;;;3.10;2.40;;;;;;;35.77;24.49;99332.51;108551;1256;62497;-70
2023/06/27 08:53:43;;;;;;;1.70;1.50;;;;;;;35.80;24.37;99327.27;108526;1254;61048;-68
2023/06/27 08:56:11;;;;;;;2.90;2.40;;;;;;;35.59;24.30;99325.10;107795;1254;60333;-68
2023/06/27 08:58:46;;;;;;;4.00;2.20;;;;;;;35.82;24.50;99329.65;107654;1257;63688;-69
2023/06/27 09:01:14;;;;;;;3.80;2.10;;;;;;;36.21;24.20;99329.66;107810;1254;60322;-70
2023/06/27 09:03:41;;;;;;;3.00;2.10;;;;;;;36.53;23.72;99330.33;107968;1253;66131;-70
2023/06/27 09:06:09;;;;;;;2.30;2.10;;;;;;;36.57;23.25;99336.29;107971;1253;60406;-70
2023/06/27 09:08:38;;;;;;;3.30;2.10;;;;;;;36.79;23.55;99335.27;107921;1254;60415;-68
2023/06/27 09:11:09;;;;;;;3.40;2.50;;;;;;;36.96;23.42;99328.14;107891;1254;65866;-71
2023/06/27 09:13:37;;;;;;;2.60;1.90;;;;;;;36.89;23.12;99325.76;107638;1254;60458;-68
2023/06/27 09:16:05;;;;;;;4.50;2.50;;;;;;;36.86;23.25;99330.98;107946;1253;64666;-69
2023/06/27 09:18:35;;;;;;;3.30;2.30;;;;;;;37.02;23.29;99324.18;107842;1254;59852;-69
2023/06/27 09:21:03;;;;;;;3.20;2.20;;;;;;;37.33;23.01;99318.59;107403;1258;61849;-70
2023/06/27 09:23:30;;;;;;;3.20;2.20;;;;;;;37.43;22.54;99318.51;107880;1254;64909;-70
2023/06/27 09:26:12;;;;;;;2.60;1.90;;;;;;;37.61;22.55;99319.05;107941;1253;63311;-70
2023/06/27 09:28:48;;;;;;;2.50;2.20;;;;;;;37.95;22.07;99317.85;108135;1254;74911;-70
2023/06/27 09:31:17;;;;;;;7.30;2.50;;;;;;;37.66;21.97;99318.27;107892;1253;62624;-69
2023/06/27 09:33:47;;;;;;;3.60;1.90;;;;;;;37.40;22.31;99322.59;108017;1254;60319;-70
2023/06/27 09:36:34;;;;;;;2.90;2.00;;;;;;;37.15;22.62;99333.80;107817;1254;64954;-69
2023/06/27 09:39:09;;;;;;;4.10;2.30;;;;;;;36.76;22.81;99330.64;107818;1254;69233;-70
2023/06/27 09:41:47;;;;;;;2.50;2.30;;;;;;;36.56;23.11;99332.35;107770;1254;63944;-69
2023/06/27 09:44:18;;;;;;;2.70;1.90;;;;;;;36.70;23.17;99332.59;107611;1258;60336;-71
2023/06/27 09:46:47;;;;;;;3.50;2.40;;;;;;;36.65;23.18;99331.05;107870;1254;59227;-69
2023/06/27 09:49:15;;;;;;;2.70;2.40;;;;;;;36.62;23.38;99330.13;108129;1254;65577;-71
2023/06/27 09:51:53;;;;;;;2.80;2.20;;;;;;;36.57;23.46;99329.04;107827;1254;61028;-71
2023/06/27 09:54:22;;;;;;;3.00;2.10;;;;;;;36.45;23.75;99329.52;107912;1253;64791;-68
2023/06/27 09:56:50;;;;;;;2.50;2.30;;;;;;;36.48;23.49;99329.79;107644;1253;60239;-68
2023/06/27 09:59:19;;;;;;;3.90;2.30;;;;;;;36.74;23.42;99327.30;107986;1254;60307;-70
2023/06/27 10:01:51;;;;;;;4.50;2.00;;;;;;;36.99;22.98;99327.09;107931;1254;64911;-68
2023/06/27 10:04:39;;;;;;;4.50;2.00;;;;;;;37.14;22.78;99329.33;107426;1257;68610;-71
2023/06/27 10:07:08;;;;;;;3.10;2.10;;;;;;;37.34;22.65;99326.46;107807;1255;63750;-69
2023/06/27 10:09:37;;;;;;;2.80;1.60;;;;;;;37.68;22.61;99329.20;107946;1254;58972;-69
2023/06/27 10:12:06;;;;;;;3.80;1.90;;;;;;;38.05;22.11;99327.27;107990;1253;60313;-68
2023/06/27 10:14:34;;;;;;;2.70;1.80;;;;;;;38.24;21.86;99330.48;108043;1253;64338;-68
2023/06/27 10:17:06;;;;;;;2.00;1.70;;;;;;;38.17;21.20;99329.19;107882;1253;60620;-69
2023/06/27 10:19:49;;;;;;;2.50;2.30;;;;;;;38.13;21.47;99325.19;107712;1253;72012;-69
2023/06/27 10:22:35;;;;;;;6.70;2.50;;;;;;;38.16;21.70;99335.99;107886;1253;60479;-70
2023/06/27 10:25:06;;;;;;;3.80;1.90;;;;;;;38.44;21.23;99332.08;107662;1254;59226;-69
2023/06/27 10:27:36;;;;;;;2.90;2.30;;;;;;;38.45;21.03;99325.60;107533;1253;65672;-70
2023/06/27 10:30:23;;;;;;;2.50;2.20;;;;;;;38.59;21.17;99326.63;109156;1253;60144;-69
2023/06/27 10:32:52;;;;;;;2.50;2.10;;;;;;;38.59;21.38;99327.80;108319;1253;135339;-69
2023/06/27 10:37:28;;;;;;;2.40;2.10;;;;;;;36.56;23.67;99329.98;104898;1288;600342;-69
2023/06/27 10:39:56;;;;;;;8.80;2.40;;;;;;;38.43;21.76;99327.48;106862;1270;59164;-69
2023/06/27 10:42:24;;;;;;;2.50;2.20;;;;;;;38.79;21.44;99323.17;107367;1261;59212;-68
2023/06/27 10:45:01;;;;;;;2.70;1.80;;;;;;;38.72;21.22;99325.38;107313;1260;62032;-69
2023/06/27 10:47:41;;;;;;;3.40;2.20;;;;;;;38.71;21.24;99322.30;107058;1265;61895;-69
2023/06/27 10:50:10;;;;;;;;;;;;;;;38.57;20.94;99321.78;107206;1264;262263;-69
2023/06/27 10:52:39;;;;;;;2.60;2.00;;;;;;;38.55;20.95;99319.66;107538;1259;59292;-72
2023/06/27 10:55:15;;;;;;;3.00;2.00;;;;;;;38.64;21.04;99324.81;107974;1255;59179;-68
2023/06/27 10:57:43;;;;;;;3.90;2.10;;;;;;;38.69;20.98;99326.46;107915;1259;62150;-69
2023/06/27 11:00:11;;;;;;;4.70;2.10;;;;;;;38.60;20.73;99325.80;107924;1255;61922;-70
2023/06/27 11:02:44;;;;;;;4.50;2.00;;;;;;;38.02;21.19;99324.71;107749;1254;73694;-69
2023/06/27 11:05:18;;;;;;;2.90;2.20;;;;;;;37.72;21.40;99321.41;107776;1257;59611;-69
2023/06/27 11:07:53;;;;;;;2.70;2.30;;;;;;;37.70;21.56;99319.68;107650;1254;59502;-69
2023/06/27 11:10:22;;;;;;;2.40;2.20;;;;;;;37.55;21.72;99324.78;107240;1255;64181;-71
2023/06/27 11:12:51;;;;;;;6.80;2.50;;;;;;;37.48;21.90;99320.06;107971;1254;61805;-69
2023/06/27 11:15:18;;;;;;;3.10;2.10;;;;;;;37.57;21.64;99316.10;107861;1254;64258;-70
2023/06/27 11:17:46;;;;;;;2.90;2.30;;;;;;;37.76;21.58;99309.98;108933;1254;57518;-71
2023/06/27 11:20:13;;;;;;;2.00;1.80;;;;;;;37.86;21.36;99309.11;109122;1254;57643;-69
2023/06/27 11:22:41;;;;;;;3.50;2.20;;;;;;;38.07;21.61;99303.55;109050;1253;64302;-69
2023/06/27 11:25:15;;;;;;;2.70;1.70;;;;;;;38.30;21.23;99297.39;108733;1254;62421;-69
2023/06/27 11:27:43;;;;;;;3.40;2.10;;;;;;;38.29;21.09;99302.20;108881;1254;63066;-70
2023/06/27 11:30:10;;;;;;;2.20;2.00;;;;;;;38.16;20.94;99299.42;108879;1254;57290;-70
2023/06/27 11:32:38;;;;;;;4.20;2.30;;;;;;;37.90;20.81;99298.83;108170;1256;57632;-69
2023/06/27 11:35:07;;;;;;;2.20;1.90;;;;;;;37.73;21.43;99297.69;108743;1253;62917;-68